Rocky Mountain Metropolitan Airport
KBJC : rendu visible

Aérodrome :











RETROUVEZ-NOUS SUR...

 
LOGIN :

S'inscrire | Disclaimer

   EN    FR    IT 

 









Légende :    VFR   VFR Marginal   IFR   IFR Intensif   IFR Très Intensif
Visi : 
Plafond : 
>= 8 km
>= 3000ft
5 à 8 km
1000 à 3000 ft
1500m à 5 km
500 à 1000 ft
800 à 1500m
200 à 500 ft
< 800m
< 200 ft
Symboles :   Orages  Brouillard  Fortes neiges  Fortes précipitations  Vent > 20 kt






- Altitude de l'aérodrome : 5673 ft


KBJC - Rocky Mountain Metropolitan

DERNIER METAR :
  • 260754Z AUTO 00000KT 10SM CLR 03/M09 A3004 RMK AO2

METARs EXPIRÉS :
  • 260730Z AUTO 00000KT 10SM SCT120 04/M09 A3005 RMK AO2
  • 260712Z AUTO 00000KT 10SM BKN120 05/M09 A3006 RMK AO2
  • 260653Z AUTO 03003KT 10SM SCT120 04/M09 A3006 RMK AO2
  • 260630Z AUTO 04005KT 10SM CLR 04/M09 A3006 RMK AO2
  • 260612Z AUTO 09004KT 10SM CLR 05/M09 A3006 RMK AO2
  • 260554Z AUTO 15004KT 10SM SCT120 05/M09 A3004 RMK AO2
  • 260530Z AUTO 00000KT 10SM BKN120 05/M09 A3004 RMK AO2
  • 260512Z AUTO 10003KT 10SM BKN120 04/M09 A3003 RMK AO2

TAF KBJC
Valide du 26 à 06h jusqu'au 27 à 06h UTC


260523Z 2606/2706 24006KT P6SM BKN120 BKN200
FM261200 VRB04KT P6SM FEW110 SCT220
FM261900 35008KT P6SM FEW110 BKN200
FM270200 VRB04KT P6SM SCT120 BKN220



MET'MAP, la Météo Aéronautique d'un coup d'oeil ! - Copyright ORBIFLY Décembre 2007 - Disclaimer

ORBIFLY MET'MAP TEAM :

Programmation & Développement : Alexandra Zaïnal
Sur une idée originale de : Baudouin d'Aumeries
Assistance à la programmation : Marc-Olivier Méhu
Soutien technique & logistique : Manuel Goepfert

Contact : metmap@orbifly.com




SOURCES & CREDITS :

   NOAA       Earth
Advisory